Time;durP1;ratioP1;P1;durP2;ratioP2;P2;SDS_P1;SDS_P2;PMS_P1;PMS_P2;Temp;Humidity;BMP_temperature;BMP_pressure;BME280_temperature;BME280_humidity;BME280_pressure;Samples;Min_cycle;Max_cycle;Signal;HPM_P1;HPM_P2
2022/10/27 00:00:04;;;;;;;29.50;16.95;;;;;;;;;;5040576;28;20024;-72
2022/10/27 00:02:30;;;;;;;27.80;17.35;;;;;;;;;;5040608;28;20027;-72
2022/10/27 00:04:55;;;;;;;27.83;17.17;;;;;;;;;;5054493;28;20127;-72
2022/10/27 00:07:20;;;;;;;27.57;17.10;;;;;;;;;;5041606;28;20471;-70
2022/10/27 00:09:45;;;;;;;26.17;16.40;;;;;;;;;;5040051;28;20025;-71
2022/10/27 00:12:11;;;;;;;28.17;16.73;;;;;;;;;;5040444;28;20311;-71
2022/10/27 00:14:36;;;;;;;28.70;16.70;;;;;;;;;;5036588;28;20277;-71
2022/10/27 00:17:01;;;;;;;25.90;16.10;;;;;;;;;;5056910;28;20044;-71
2022/10/27 00:19:26;;;;;;;29.90;15.27;;;;;;;;;;5039349;28;20025;-72
2022/10/27 00:21:52;;;;;;;30.40;16.87;;;;;;;;;;5036900;28;20104;-72
2022/10/27 00:24:17;;;;;;;36.17;16.75;;;;;;;;;;5050379;28;20285;-73
2022/10/27 00:26:43;;;;;;;24.80;15.75;;;;;;;;;;5039690;28;20033;-71
2022/10/27 00:29:08;;;;;;;27.30;16.45;;;;;;;;;;5041644;28;20032;-71
2022/10/27 00:31:33;;;;;;;31.43;21.07;;;;;;;;;;5039329;28;20071;-71
2022/10/27 00:33:59;;;;;;;29.80;17.27;;;;;;;;;;5052458;28;20276;-72
2022/10/27 00:36:24;;;;;;;28.60;16.17;;;;;;;;;;5039695;28;20028;-71
2022/10/27 00:38:54;;;;;;;26.20;15.07;;;;;;;;;;5036570;28;20033;-72
2022/10/27 00:41:25;;;;;;;26.38;15.50;;;;;;;;;;5039870;28;20266;-71
2022/10/27 00:43:50;;;;;;;27.38;15.07;;;;;;;;;;5052251;28;20021;-71
2022/10/27 00:46:22;;;;;;;26.05;14.55;;;;;;;;;;5040242;28;20060;-71
2022/10/27 00:48:48;;;;;;;27.50;15.18;;;;;;;;;;5045135;28;20458;-71
2022/10/27 00:51:15;;;;;;;26.75;15.32;;;;;;;;;;5038164;28;20029;-72
2022/10/27 00:53:40;;;;;;;26.40;15.18;;;;;;;;;;5041496;28;20049;-71
2022/10/27 00:56:06;;;;;;;28.93;15.90;;;;;;;;;;5040918;28;20072;-71
2022/10/27 00:58:31;;;;;;;26.50;14.82;;;;;;;;;;5040860;28;20747;-71
2022/10/27 01:00:57;;;;;;;24.73;15.00;;;;;;;;;;5035632;28;20017;-71
2022/10/27 01:03:22;;;;;;;28.15;15.13;;;;;;;;;;5035482;28;20029;-71
2022/10/27 01:05:48;;;;;;;26.58;14.77;;;;;;;;;;5046685;28;20024;-71
2022/10/27 01:08:14;;;;;;;24.08;14.45;;;;;;;;;;5041026;28;20511;-71
2022/10/27 01:10:39;;;;;;;26.45;14.13;;;;;;;;;;5044837;28;20099;-72
2022/10/27 01:13:04;;;;;;;28.30;14.07;;;;;;;;;;5043415;28;20475;-71
2022/10/27 01:15:39;;;;;;;21.90;13.35;;;;;;;;;;5034895;28;20121;-71
2022/10/27 01:18:16;;;;;;;23.75;14.05;;;;;;;;;;5036689;28;20025;-71
2022/10/27 01:20:54;;;;;;;24.48;13.73;;;;;;;;;;5042337;28;20017;-72
2022/10/27 01:23:38;;;;;;;23.60;14.48;;;;;;;;;;5051746;28;20031;-70
2022/10/27 01:26:21;;;;;;;24.33;13.57;;;;;;;;;;5052203;28;20041;-72
2022/10/27 01:28:53;;;;;;;28.42;14.35;;;;;;;;;;5049388;28;20031;-72
2022/10/27 01:31:25;;;;;;;24.08;14.00;;;;;;;;;;5046918;28;20021;-72
2022/10/27 01:33:58;;;;;;;22.05;13.10;;;;;;;;;;5048225;28;20140;-73
2022/10/27 01:36:26;;;;;;;22.48;12.45;;;;;;;;;;5039997;28;20156;-71
2022/10/27 01:38:54;;;;;;;22.10;12.70;;;;;;;;;;5045014;28;20028;-71
2022/10/27 01:41:21;;;;;;;20.23;12.35;;;;;;;;;;5040699;28;20017;-71
2022/10/27 01:43:48;;;;;;;21.25;11.82;;;;;;;;;;5043817;28;20498;-68
2022/10/27 01:46:14;;;;;;;18.30;11.45;;;;;;;;;;5040046;28;20080;-71
2022/10/27 01:48:40;;;;;;;21.65;11.63;;;;;;;;;;5040677;28;20160;-72
2022/10/27 01:51:08;;;;;;;16.83;10.65;;;;;;;;;;5041445;28;20116;-72
2022/10/27 01:53:36;;;;;;;20.05;11.30;;;;;;;;;;5043137;28;20025;-72
2022/10/27 01:56:04;;;;;;;24.90;12.90;;;;;;;;;;5046995;28;20052;-70
2022/10/27 01:58:48;;;;;;;18.73;11.48;;;;;;;;;;5041786;28;20494;-71
2022/10/27 02:01:16;;;;;;;18.15;12.15;;;;;;;;;;5039453;28;20033;-71
2022/10/27 02:03:44;;;;;;;21.05;12.35;;;;;;;;;;5032472;28;20475;-72
2022/10/27 02:06:15;;;;;;;17.80;10.43;;;;;;;;;;5040749;28;20151;-72
2022/10/27 02:08:54;;;;;;;20.40;11.40;;;;;;;;;;5038373;28;20025;-72
2022/10/27 02:11:19;;;;;;;23.17;14.02;;;;;;;;;;5039617;28;20025;-70
2022/10/27 02:13:45;;;;;;;28.00;15.57;;;;;;;;;;5039911;28;20025;-72
2022/10/27 02:16:13;;;;;;;28.83;17.75;;;;;;;;;;5040794;28;20554;-71
2022/10/27 02:18:40;;;;;;;41.72;22.13;;;;;;;;;;5039863;28;20029;-72
2022/10/27 02:21:07;;;;;;;45.63;23.73;;;;;;;;;;5041381;28;20028;-70
2022/10/27 02:23:33;;;;;;;27.65;16.17;;;;;;;;;;5040196;28;20034;-72
2022/10/27 02:26:01;;;;;;;20.70;12.38;;;;;;;;;;5041930;28;20025;-71
2022/10/27 02:28:35;;;;;;;15.90;9.95;;;;;;;;;;5035478;28;20025;-71
2022/10/27 02:31:01;;;;;;;17.42;9.38;;;;;;;;;;5041928;28;20150;-70
2022/10/27 02:33:26;;;;;;;17.10;9.60;;;;;;;;;;5036766;28;20110;-72
2022/10/27 02:35:53;;;;;;;12.40;8.17;;;;;;;;;;5039406;28;20477;-72
2022/10/27 02:38:19;;;;;;;12.95;8.00;;;;;;;;;;5036968;28;20686;-70
2022/10/27 02:40:44;;;;;;;13.90;7.70;;;;;;;;;;5038517;28;20021;-71
2022/10/27 02:43:10;;;;;;;14.13;7.90;;;;;;;;;;5037441;28;20619;-71
2022/10/27 02:45:35;;;;;;;15.27;8.10;;;;;;;;;;5055325;28;20029;-72
2022/10/27 02:48:00;;;;;;;12.83;7.27;;;;;;;;;;5036934;28;20059;-72
2022/10/27 02:50:25;;;;;;;14.87;6.83;;;;;;;;;;5039704;28;20021;-71
2022/10/27 02:52:51;;;;;;;11.20;7.07;;;;;;;;;;5037141;28;20308;-71
2022/10/27 02:55:16;;;;;;;15.93;6.97;;;;;;;;;;5036200;28;20544;-72
2022/10/27 02:57:41;;;;;;;11.27;6.75;;;;;;;;;;5040275;28;20048;-71
2022/10/27 03:00:07;;;;;;;10.37;6.60;;;;;;;;;;5039815;28;20087;-70
2022/10/27 03:02:32;;;;;;;16.08;7.18;;;;;;;;;;5036306;28;20021;-71
2022/10/27 03:04:57;;;;;;;11.63;6.90;;;;;;;;;;5044373;28;20490;-73
2022/10/27 03:07:23;;;;;;;15.03;6.53;;;;;;;;;;5032751;28;20415;-73
2022/10/27 03:09:48;;;;;;;13.02;6.72;;;;;;;;;;5041741;28;20017;-73
2022/10/27 03:12:13;;;;;;;11.90;6.17;;;;;;;11.71;nan;101596.63;5038749;28;20101;-75
2022/10/27 03:14:38;;;;;;;11.82;6.20;;;;;;;;;;5034764;28;20271;-75
2022/10/27 03:17:04;;;;;;;9.40;6.07;;;;;;;;;;5041741;28;20075;-73
2022/10/27 03:19:29;;;;;;;10.97;6.90;;;;;;;;;;5054499;28;20025;-74
2022/10/27 03:21:54;;;;;;;9.97;6.37;;;;;;;;;;5042660;28;20943;-74
2022/10/27 03:24:19;;;;;;;11.75;6.40;;;;;;;;;;5033956;28;20442;-74
2022/10/27 03:26:45;;;;;;;10.27;6.63;;;;;;;;;;5037805;28;20486;-74
2022/10/27 03:29:10;;;;;;;12.50;6.70;;;;;;;;;;5035024;28;20511;-74
2022/10/27 03:31:35;;;;;;;14.70;6.87;;;;;;;;;;5041470;28;20104;-73
2022/10/27 03:34:00;;;;;;;13.30;6.13;;;;;;;;;;5039155;28;20269;-72
2022/10/27 03:36:26;;;;;;;10.57;6.17;;;;;;;;;;5034765;28;20271;-74
2022/10/27 03:38:53;;;;;;;12.37;6.60;;;;;;;;;;5036914;28;20265;-74
2022/10/27 03:41:18;;;;;;;17.55;6.57;;;;;;;;;;5036883;28;20098;-73
2022/10/27 03:43:43;;;;;;;13.77;6.83;;;;;;;;;;5038132;28;20029;-74
2022/10/27 03:46:09;;;;;;;11.03;6.63;;;;;;;;;;5034350;28;20029;-74
2022/10/27 03:48:34;;;;;;;13.45;6.90;;;;;;;;;;5046135;28;20029;-74
2022/10/27 03:50:59;;;;;;;13.43;6.83;;;;;;;;;;5039287;28;20024;-73
2022/10/27 03:53:24;;;;;;;12.10;6.73;;;;;;;;;;5037402;28;20302;-73
2022/10/27 03:55:50;;;;;;;12.17;6.33;;;;;;;;;;5042135;28;20030;-74
2022/10/27 03:58:16;;;;;;;10.90;6.07;;;;;;;;;;5050765;28;20270;-73
2022/10/27 04:00:41;;;;;;;9.98;6.35;;;;;;;;;;5047370;28;20032;-72
2022/10/27 04:03:06;;;;;;;11.43;6.27;;;;;;;;;;5047369;28;20100;-69
2022/10/27 04:05:32;;;;;;;14.30;5.93;;;;;;;;;;5045692;28;20029;-70
2022/10/27 04:07:57;;;;;;;14.07;6.45;;;;;;;;;;5050319;28;20049;-71
2022/10/27 04:10:26;;;;;;;9.88;6.03;;;;;;;;;;5038897;28;20026;-71
2022/10/27 04:12:52;;;;;;;11.98;6.60;;;;;;;;;;5033340;28;20033;-70
2022/10/27 04:15:18;;;;;;;12.10;6.38;;;;;;;;;;5040589;28;20782;-72
2022/10/27 04:17:43;;;;;;;12.13;6.43;;;;;;;;;;5033208;28;20032;-71
2022/10/27 04:20:09;;;;;;;14.57;6.70;;;;;;;;;;5044078;28;20029;-72
2022/10/27 04:22:34;;;;;;;14.40;6.72;;;;;;;;;;5033071;28;20281;-72
2022/10/27 04:25:00;;;;;;;17.23;6.73;;;;;;;;;;5038003;28;20037;-73
2022/10/27 04:27:25;;;;;;;10.73;6.33;;;;;;;;;;5048366;28;20059;-73
2022/10/27 04:29:50;;;;;;;13.60;6.67;;;;;;;;;;5039609;28;20269;-73
2022/10/27 04:32:15;;;;;;;25.63;11.07;;;;;;;;;;5030927;28;20049;-73
2022/10/27 04:34:40;;;;;;;18.88;10.27;;;;;;;;;;5037865;28;20021;-73
2022/10/27 04:37:06;;;;;;;15.57;8.53;;;;;;;;;;5035272;28;20029;-74
2022/10/27 04:39:31;;;;;;;14.63;8.30;;;;;;;;;;5044015;28;20383;-73
2022/10/27 04:41:56;;;;;;;14.70;7.63;;;;;;;;;;5041340;28;20308;-73
2022/10/27 04:44:21;;;;;;;13.57;7.28;;;;;;;;;;5043227;28;20025;-74
2022/10/27 04:46:47;;;;;;;21.80;8.03;;;;;;;;;;5038525;28;20017;-74
2022/10/27 04:49:12;;;;;;;18.47;9.57;;;;;;;;;;5042992;28;20356;-73
2022/10/27 04:51:37;;;;;;;16.73;8.00;;;;;;;;;;5041690;28;20278;-73
2022/10/27 04:54:02;;;;;;;25.83;11.47;;;;;;;;;;5043674;28;20025;-74
2022/10/27 04:56:28;;;;;;;23.50;9.53;;;;;;;;;;5038798;28;20041;-73
2022/10/27 04:58:53;;;;;;;26.90;10.43;;;;;;;;;;5043073;28;20284;-71
2022/10/27 05:01:18;;;;;;;17.77;9.03;;;;;;;;;;5044175;28;20024;-71
2022/10/27 05:03:46;;;;;;;14.27;8.47;;;;;;;;;;5044855;28;20731;-71
2022/10/27 05:06:11;;;;;;;17.95;8.57;;;;;;;;;;5040822;28;20022;-71
2022/10/27 05:08:36;;;;;;;12.83;7.43;;;;;;;;;;5046116;28;20078;-70
2022/10/27 05:11:01;;;;;;;15.77;8.07;;;;;;;;;;5036626;28;20017;-71
2022/10/27 05:13:27;;;;;;;16.63;7.93;;;;;;;;;;5044776;28;20048;-71
2022/10/27 05:15:52;;;;;;;22.87;8.13;;;;;;;;;;5036373;28;20301;-72
2022/10/27 05:18:17;;;;;;;21.90;8.60;;;;;;;;;;5041798;28;20278;-72
2022/10/27 05:20:42;;;;;;;21.43;8.60;;;;;;;;;;5035608;28;20451;-70
2022/10/27 05:23:08;;;;;;;15.88;8.57;;;;;;;;;;5044673;28;20269;-72
2022/10/27 05:25:33;;;;;;;16.70;8.53;;;;;;;;;;5038396;28;20017;-74
2022/10/27 05:28:05;;;;;;;20.13;8.60;;;;;;;;;;5056801;28;20293;-70
2022/10/27 05:30:30;;;;;;;18.95;8.40;;;;;;;;;;5051470;28;20471;-71
2022/10/27 05:32:56;;;;;;;18.37;8.53;;;;;;;;;;5041202;28;20024;-71
2022/10/27 05:35:21;;;;;;;22.60;8.87;;;;;;;;;;5037066;28;20270;-71
2022/10/27 05:37:46;;;;;;;20.80;8.95;;;;;;;;;;5040357;28;20273;-71
2022/10/27 05:40:12;;;;;;;16.38;8.05;;;;;;;;;;5043269;28;20464;-71
2022/10/27 05:42:37;;;;;;;27.50;9.02;;;;;;;;;;5039980;28;20021;-71
2022/10/27 05:45:03;;;;;;;20.90;8.43;;;;;;;;;;5041173;28;20032;-71
2022/10/27 05:47:28;;;;;;;18.55;8.43;;;;;;;;;;5041575;28;20025;-71
2022/10/27 05:49:53;;;;;;;18.58;8.85;;;;;;;;;;5056632;28;20021;-71
2022/10/27 05:52:18;;;;;;;20.10;8.83;;;;;;;;;;5039171;28;20032;-73
2022/10/27 05:54:44;;;;;;;18.40;8.00;;;;;;;;;;5040764;28;20431;-72
2022/10/27 05:57:09;;;;;;;22.13;7.70;;;;;;;;;;5039197;28;20314;-73
2022/10/27 05:59:34;;;;;;;19.20;8.50;;;;;;;;;;5041331;28;20270;-72
2022/10/27 06:01:59;;;;;;;17.83;7.60;;;;;;;;;;5039921;28;20300;-72
2022/10/27 06:04:25;;;;;;;17.53;7.53;;;;;;;;;;5040246;28;20353;-71
2022/10/27 06:06:50;;;;;;;11.33;7.23;;;;;;;;;;5041742;28;20037;-70
2022/10/27 06:09:15;;;;;;;17.77;8.53;;;;;;;;;;5042218;28;20293;-72
2022/10/27 06:11:40;;;;;;;17.37;8.03;;;;;;;;;;5039992;28;20037;-71
2022/10/27 06:14:06;;;;;;;14.73;8.13;;;;;;;;;;5036224;28;20398;-71
2022/10/27 06:16:31;;;;;;;15.73;7.93;;;;;;;;;;5039294;28;20282;-70
2022/10/27 06:18:56;;;;;;;14.30;8.00;;;;;;;;;;5038779;28;20282;-71
2022/10/27 06:21:21;;;;;;;17.87;8.10;;;;;;;;;;5048405;28;20025;-71
2022/10/27 06:23:47;;;;;;;17.67;8.18;;;;;;;;;;5044023;28;20273;-69
2022/10/27 06:26:12;;;;;;;16.45;9.13;;;;;;;;;;5040278;28;20420;-71
2022/10/27 06:28:37;;;;;;;15.73;8.17;;;;;;;;;;5045638;28;20134;-72
2022/10/27 06:31:03;;;;;;;17.63;9.00;;;;;;;;;;5049472;28;20049;-71
2022/10/27 06:33:28;;;;;;;17.75;9.07;;;;;;;;;;5052293;28;20060;-72
2022/10/27 06:35:53;;;;;;;19.13;9.17;;;;;;;;;;5048067;28;20018;-71
2022/10/27 06:38:18;;;;;;;24.20;8.97;;;;;;;;;;5035685;28;20024;-72
2022/10/27 06:40:44;;;;;;;21.77;8.63;;;;;;;;;;5045986;28;20082;-70
2022/10/27 06:43:10;;;;;;;20.63;8.77;;;;;;;;;;5042069;28;20047;-72
2022/10/27 06:45:36;;;;;;;18.88;8.57;;;;;;;;;;5038275;28;20036;-72
2022/10/27 06:48:01;;;;;;;19.52;8.52;;;;;;;;;;5044472;28;20096;-72
2022/10/27 06:50:27;;;;;;;22.73;8.63;;;;;;;;;;5036612;28;20549;-72
2022/10/27 06:52:52;;;;;;;25.20;8.27;;;;;;;;;;5042865;28;20025;-71
2022/10/27 06:55:18;;;;;;;17.02;8.25;;;;;;;;;;5035248;28;20022;-73
2022/10/27 06:57:43;;;;;;;21.50;8.23;;;;;;;;;;5039167;28;20417;-72
2022/10/27 07:00:09;;;;;;;16.30;8.20;;;;;;;;;;5038952;28;20037;-72
2022/10/27 07:02:34;;;;;;;21.52;8.60;;;;;;;;;;5042019;28;20087;-71
2022/10/27 07:05:00;;;;;;;14.30;8.33;;;;;;;;;;5042052;28;20017;-71
2022/10/27 07:07:25;;;;;;;22.23;8.90;;;;;;;;;;5042921;28;20029;-73
2022/10/27 07:09:50;;;;;;;20.80;8.50;;;;;;;;;;5056661;28;20024;-71
2022/10/27 07:12:15;;;;;;;21.53;8.90;;;;;;;;;;5042302;28;20288;-74
2022/10/27 07:14:41;;;;;;;19.80;8.10;;;;;;;;;;5039854;28;20025;-72
2022/10/27 07:17:06;;;;;;;19.80;9.23;;;;;;;;;;5041173;28;20078;-73
2022/10/27 07:19:31;;;;;;;19.30;8.77;;;;;;;;;;5039593;28;20325;-71
2022/10/27 07:21:56;;;;;;;17.73;9.13;;;;;;;;;;5038592;28;20083;-71
2022/10/27 07:24:22;;;;;;;21.30;9.30;;;;;;;;;;5042872;28;20029;-71
2022/10/27 07:26:47;;;;;;;18.88;9.82;;;;;;;;;;5039266;28;20367;-71
2022/10/27 07:29:12;;;;;;;19.20;9.17;;;;;;;;;;5040764;28;20074;-72
2022/10/27 07:31:38;;;;;;;20.15;8.77;;;;;;;;;;5035040;28;20029;-70
2022/10/27 07:34:03;;;;;;;20.17;9.07;;;;;;;;;;5037766;28;20018;-72
2022/10/27 07:36:28;;;;;;;23.57;9.40;;;;;;;;;;5038442;28;20408;-71
2022/10/27 07:38:53;;;;;;;19.00;8.97;;;;;;;;;;5038054;28;20273;-71
2022/10/27 07:41:20;;;;;;;18.63;9.37;;;;;;;;;;5036073;28;20661;-70
2022/10/27 07:43:47;;;;;;;19.33;8.77;;;;;;;;;;5048159;28;20024;-72
2022/10/27 07:46:13;;;;;;;18.65;8.38;;;;;;;;;;5038988;28;20028;-74
2022/10/27 07:48:38;;;;;;;14.65;7.78;;;;;;;;;;5038805;28;20025;-71
2022/10/27 07:51:03;;;;;;;23.50;9.07;;;;;;;;;;5042402;28;20415;-72
2022/10/27 07:53:28;;;;;;;13.40;8.20;;;;;;;;;;5037178;28;20478;-70
2022/10/27 07:55:55;;;;;;;19.30;8.10;;;;;;;;;;5036530;28;20408;-70
2022/10/27 07:58:20;;;;;;;14.35;7.60;;;;;;;;;;5039973;28;20033;-72
2022/10/27 08:00:47;;;;;;;14.90;7.43;;;;;;;;;;5037252;28;20021;-70
2022/10/27 08:03:16;;;;;;;14.38;7.05;;;;;;;;;;5039730;28;20025;-72
2022/10/27 08:05:42;;;;;;;14.15;7.10;;;;;;;;;;5037655;28;20028;-72
2022/10/27 08:08:07;;;;;;;15.27;7.03;;;;;;;;;;5051247;28;20387;-72
2022/10/27 08:10:33;;;;;;;16.10;7.18;;;;;;;;;;5040044;28;20052;-71
2022/10/27 08:12:59;;;;;;;14.02;7.57;;;;;;;;;;5040453;28;20056;-71
2022/10/27 08:15:24;;;;;;;15.02;7.82;;;;;;;;;;5044985;28;20540;-72
2022/10/27 08:17:51;;;;;;;15.48;7.75;;;;;;;;;;5041699;28;20434;-71
2022/10/27 08:20:16;;;;;;;11.90;8.27;;;;;;;;;;5040525;28;20022;-70
2022/10/27 08:22:41;;;;;;;13.07;7.80;;;;;;;;;;5055162;28;20022;-70
2022/10/27 08:25:07;;;;;;;13.00;7.03;;;;;;;;;;5039390;28;20025;-71
2022/10/27 08:27:32;;;;;;;15.07;7.40;;;;;;;;;;5042342;28;20017;-70
2022/10/27 08:29:57;;;;;;;11.75;7.55;;;;;;;;;;5040980;28;20028;-71
2022/10/27 08:32:23;;;;;;;12.03;6.90;;;;;;;;;;5039356;28;20032;-71
2022/10/27 08:34:48;;;;;;;14.70;7.20;;;;;;;;;;5041166;28;20278;-70
2022/10/27 08:37:13;;;;;;;12.63;6.90;;;;;;;;;;5054042;28;20022;-71
2022/10/27 08:39:38;;;;;;;14.00;7.70;;;;;;;;;;5043743;28;20402;-71
2022/10/27 08:42:08;;;;;;;10.40;6.97;;;;;;;;;;5039834;28;20017;-73
2022/10/27 08:44:42;;;;;;;17.10;7.50;;;;;;;;;;5037750;28;20265;-73
2022/10/27 08:47:11;;;;;;;9.75;6.93;;;;;;;;;;5053321;28;20064;-71
2022/10/27 08:49:39;;;;;;;13.43;7.03;;;;;;;;;;5041177;28;20055;-70
2022/10/27 08:52:15;;;;;;;12.18;6.90;;;;;;;;;;5036970;28;20030;-69
2022/10/27 08:54:42;;;;;;;11.60;7.72;;;;;;;;;;5042764;28;20040;-73
2022/10/27 08:57:09;;;;;;;11.02;7.40;;;;;;;;;;5044539;28;20128;-71
2022/10/27 08:59:36;;;;;;;11.15;6.65;;;;;;;;;;5060386;28;20029;-72
2022/10/27 09:02:20;;;;;;;8.23;5.93;;;;;;;;;;5040658;28;20384;-73
2022/10/27 09:05:03;;;;;;;12.25;6.80;;;;;;;;;;5034854;28;20025;-72
2022/10/27 09:07:38;;;;;;;13.63;6.75;;;;;;;;;;5050650;28;20487;-72
2022/10/27 09:10:10;;;;;;;12.90;7.68;;;;;;;;;;5066758;28;20037;-71
2022/10/27 09:12:47;;;;;;;11.20;7.45;;;;;;;;;;5045534;28;20106;-71
2022/10/27 09:15:28;;;;;;;16.02;7.85;;;;;;;;;;5050833;28;20026;-72
2022/10/27 09:18:02;;;;;;;13.23;6.88;;;;;;;;;;5047887;28;20052;-71
2022/10/27 09:20:31;;;;;;;14.95;7.05;;;;;;;;;;5035815;28;20026;-71
2022/10/27 09:22:58;;;;;;;15.02;7.70;;;;;;;15.68;nan;101747.97;5037056;28;20076;-72
2022/10/27 09:25:24;;;;;;;13.35;7.82;;;;;;;;;;5037766;28;20159;-71
2022/10/27 09:27:54;;;;;;;14.73;7.75;;;;;;;;;;5038294;28;20156;-72
2022/10/27 09:30:19;;;;;;;16.42;7.57;;;;;;;;;;5050326;28;20041;-71
2022/10/27 09:32:47;;;;;;;15.27;7.33;;;;;;;;;;5040737;28;20025;-73
2022/10/27 09:35:12;;;;;;;12.13;6.70;;;;;;;;;;5038485;28;20342;-73
2022/10/27 09:37:41;;;;;;;18.27;8.73;;;;;;;;;;5042392;28;20147;-72
2022/10/27 09:40:14;;;;;;;17.63;7.90;;;;;;;;;;5040108;28;20283;-72
2022/10/27 09:42:39;;;;;;;16.10;7.70;;;;;;;;;;5037208;28;20116;-71
2022/10/27 09:45:11;;;;;;;12.05;7.32;;;;;;;;;;5042412;28;20102;-71
2022/10/27 09:47:38;;;;;;;14.60;7.53;;;;;;;;;;5040830;28;20036;-72
2022/10/27 09:50:07;;;;;;;11.70;7.18;;;;;;;;;;5036343;28;20353;-72
2022/10/27 09:52:36;;;;;;;12.25;7.10;;;;;;;;;;5040156;28;20483;-72
2022/10/27 09:55:01;;;;;;;16.73;7.63;;;;;;;;;;5038971;28;20021;-72
2022/10/27 09:57:28;;;;;;;10.37;7.17;;;;;;;;;;5039672;28;20309;-72
2022/10/27 09:59:56;;;;;;;18.65;9.82;;;;;;;;;;5042772;28;20475;-70
2022/10/27 10:02:31;;;;;;;22.58;10.95;;;;;;;;;;5037542;28;20025;-73
2022/10/27 10:04:57;;;;;;;18.75;10.38;;;;;;;;;;5044525;28;20074;-73
2022/10/27 10:07:36;;;;;;;20.92;9.48;;;;;;;;;;5036612;28;20100;-72
2022/10/27 10:10:14;;;;;;;17.20;9.77;;;;;;;;;;5034135;28;20021;-72
2022/10/27 10:12:39;;;;;;;16.05;9.07;;;;;;;;;;5033549;28;20120;-72
2022/10/27 10:15:11;;;;;;;13.30;7.50;;;;;;;;;;5045356;28;20116;-72
2022/10/27 10:17:38;;;;;;;20.55;7.45;;;;;;;;;;5038750;28;20406;-71
2022/10/27 10:20:04;;;;;;;13.82;8.10;;;;;;;;;;5040027;28;20025;-74
2022/10/27 10:22:32;;;;;;;17.85;7.88;;;;;;;17.82;nan;101756.47;5040111;28;20067;-74
2022/10/27 10:25:05;;;;;;;13.07;6.85;;;;;;;17.89;nan;101774.97;5040578;28;20096;-75
2022/10/27 10:27:32;;;;;;;12.73;5.70;;;;;;;;;;5039704;28;20104;-74
2022/10/27 10:30:01;;;;;;;14.05;5.85;;;;;;;17.98;nan;101776.16;5037063;28;20029;-74
2022/10/27 10:32:28;;;;;;;9.25;5.68;;;;;;;;;;5040108;28;20517;-74
2022/10/27 10:34:54;;;;;;;9.13;5.50;;;;;;;18.09;nan;101777.16;5041382;28;20029;-73
2022/10/27 10:37:30;;;;;;;13.25;5.90;;;;;;;;;;5039634;28;20021;-73
2022/10/27 10:40:08;;;;;;;9.95;5.60;;;;;;;;;;5035413;28;20033;-74
2022/10/27 10:42:33;;;;;;;11.57;5.93;;;;;;;18.30;nan;101784.44;5035503;28;20048;-73
2022/10/27 10:45:15;;;;;;;12.65;6.53;;;;;;;18.42;nan;101678.47;5039413;28;20049;-71
2022/10/27 10:47:45;;;;;;;10.05;5.35;;;;;;;;;;5037842;28;20474;-70
2022/10/27 10:50:12;;;;;;;12.02;5.65;;;;;;;;;;5039699;28;20051;-71
2022/10/27 10:52:38;;;;;;;12.93;5.70;;;;;;;;;;5040073;28;20039;-71
2022/10/27 10:55:06;;;;;;;11.95;5.78;;;;;;;18.86;nan;101702.53;5039207;28;20099;-72
2022/10/27 10:57:37;;;;;;;10.80;4.95;;;;;;;18.98;nan;101753.13;5038370;28;20503;-71
2022/10/27 11:00:05;;;;;;;10.88;5.20;;;;;;;19.12;nan;101729.56;5058481;28;20036;-71
2022/10/27 11:02:33;;;;;;;7.88;3.75;;;;;;;19.22;nan;101744.88;5041094;28;20039;-70
2022/10/27 11:05:16;;;;;;;7.53;4.30;;;;;;;19.31;nan;101738.84;5042898;28;20082;-70
2022/10/27 11:07:46;;;;;;;6.38;3.17;;;;;;;19.30;nan;101733.78;5039515;28;20017;-72
2022/10/27 11:10:20;;;;;;;6.53;3.40;;;;;;;19.52;nan;101736.41;5040702;28;20064;-70
2022/10/27 11:12:52;;;;;;;8.45;4.32;;;;;;;19.58;nan;101737.25;5038432;28;20116;-71
2022/10/27 11:15:43;;;;;;;8.18;4.40;;;;;;;19.61;nan;101732.22;5042882;28;20506;-71
2022/10/27 11:18:14;;;;;;;7.85;4.50;;;;;;;19.58;nan;101660.56;5037747;28;20052;-71
2022/10/27 11:20:42;;;;;;;7.82;4.18;;;;;;;19.66;nan;101721.56;5040849;28;20097;-71
2022/10/27 11:23:16;;;;;;;7.07;3.40;;;;;;;19.81;nan;101746.88;5037449;28;20479;-70
2022/10/27 11:25:41;;;;;;;9.95;3.00;;;;;;;;;;5040779;28;20033;-69
2022/10/27 11:28:19;;;;;;;6.25;3.13;;;;;;;19.87;nan;101745.84;5039833;28;20037;-71
2022/10/27 11:30:59;;;;;;;4.65;2.55;;;;;;;19.92;nan;101732.50;5051288;28;20029;-71
2022/10/27 11:33:40;;;;;;;7.50;2.70;;;;;;;20.00;nan;101731.25;5036522;28;20509;-70
2022/10/27 11:36:05;;;;;;;5.45;2.60;;;;;;;20.08;nan;101715.53;5036018;28;20083;-70
2022/10/27 11:38:50;;;;;;;5.57;2.53;;;;;;;20.16;nan;101717.75;5031963;28;20025;-72
2022/10/27 11:41:26;;;;;;;5.95;2.50;;;;;;;20.22;nan;101808.72;5038600;28;20479;-73
2022/10/27 11:44:07;;;;;;;4.03;2.63;;;;;;;20.33;nan;101706.09;5032707;28;20068;-71
2022/10/27 11:46:42;;;;;;;5.85;3.17;;;;;;;20.38;nan;101778.34;5038076;28;20037;-74
2022/10/27 11:49:19;;;;;;;8.23;3.60;;;;;;;20.40;nan;101703.97;5036319;28;20100;-73
2022/10/27 11:51:51;;;;;;;6.50;2.97;;;;;;;20.45;nan;101705.84;5036933;28;20029;-74
2022/10/27 11:54:17;;;;;;;19.92;5.68;;;;;;;20.47;nan;101668.94;5038297;28;20017;-72
2022/10/27 11:56:42;;;;;;;9.77;3.45;;;;;;;20.60;nan;101714.00;5036080;28;20060;-73
2022/10/27 11:59:26;;;;;;;9.47;3.60;;;;;;;20.65;nan;101683.78;5037922;28;20028;-72
2022/10/27 12:02:00;;;;;;;5.00;3.25;;;;;;;20.71;nan;101712.19;5046096;28;20266;-72
2022/10/27 12:04:38;;;;;;;7.43;3.50;;;;;;;20.79;nan;101698.31;5064078;28;20054;-70
2022/10/27 12:07:19;;;;;;;5.15;3.10;;;;;;;20.81;nan;101688.16;5058965;28;20068;-70
2022/10/27 12:09:53;;;;;;;6.95;3.10;;;;;;;20.80;nan;101690.00;5049330;28;20025;-71
2022/10/27 12:12:34;;;;;;;7.47;3.38;;;;;;;20.82;nan;101692.44;5044812;28;20032;-70
2022/10/27 12:15:03;;;;;;;5.18;3.38;;;;;;;20.84;nan;101698.31;5038465;28;20021;-71
2022/10/27 12:17:45;;;;;;;8.80;4.18;;;;;;;20.82;nan;101641.56;5043369;28;20417;-72
2022/10/27 12:20:22;;;;;;;7.22;3.65;;;;;;;20.83;nan;101696.72;5031869;28;20036;-72
2022/10/27 12:22:55;;;;;;;8.38;3.92;;;;;;;20.87;nan;101703.16;5033648;28;20010;-71
2022/10/27 12:25:56;;;;;;;7.47;4.00;;;;;;;20.84;nan;101695.66;5033252;28;20115;-70
2022/10/27 12:28:25;;;;;;;6.30;3.67;;;;;;;20.82;nan;101682.50;5034625;28;20029;-70
2022/10/27 12:30:51;;;;;;;5.20;3.70;;;;;;;20.87;nan;101689.75;5037596;28;20041;-71
2022/10/27 12:33:33;;;;;;;7.35;3.90;;;;;;;20.92;nan;101694.34;5037303;28;20074;-71
2022/10/27 12:36:06;;;;;;;5.95;3.88;;;;;;;21.02;nan;101705.06;5035775;28;20020;-70
2022/10/27 12:38:40;;;;;;;7.75;3.67;;;;;;;21.08;nan;101705.91;5034085;28;20512;-71
2022/10/27 12:41:31;;;;;;;5.20;3.28;;;;;;;21.12;nan;101672.16;5055531;28;20025;-71
2022/10/27 12:44:22;;;;;;;9.27;4.05;;;;;;;21.22;nan;101705.13;5037337;28;20076;-71
2022/10/27 12:46:56;;;;;;;6.72;3.75;;;;;;;21.22;nan;101698.97;5032836;28;20099;-71
2022/10/27 12:49:49;;;;;;;5.72;4.18;;;;;;;21.16;nan;101708.88;5041242;28;20029;-71
2022/10/27 12:52:22;;;;;;;10.45;4.43;;;;;;;21.10;nan;101696.53;5040040;28;20471;-70
2022/10/27 12:54:55;;;;;;;7.78;3.65;;;;;;;20.99;nan;101706.41;5036548;28;20475;-71
2022/10/27 12:57:29;;;;;;;9.65;3.75;;;;;;;21.02;nan;101710.44;5038145;28;20045;-71
2022/10/27 13:00:07;;;;;;;5.63;3.47;;;;;;;21.06;nan;101710.72;5042979;28;20025;-71
2022/10/27 13:02:40;;;;;;;9.13;4.10;;;;;;;21.02;nan;101743.38;5039766;28;20021;-71
2022/10/27 13:05:36;;;;;;;10.95;3.75;;;;;;;21.04;nan;101713.66;5042271;28;20049;-72
2022/10/27 13:08:10;;;;;;;8.70;3.60;;;;;;;21.04;nan;101694.91;5044992;28;20039;-71
2022/10/27 13:10:44;;;;;;;8.20;3.58;;;;;;;21.10;nan;101696.53;5040526;28;20040;-72
2022/10/27 13:13:28;;;;;;;6.82;3.80;;;;;;;21.18;nan;101689.84;5042056;28;20057;-70
2022/10/27 13:16:15;;;;;;;6.20;3.33;;;;;;;21.20;nan;101703.81;5039712;28;20024;-71
2022/10/27 13:18:59;;;;;;;7.30;3.53;;;;;;;;;;5041046;28;20032;-71
2022/10/27 13:21:28;;;;;;;6.57;4.05;;;;;;;21.04;nan;101689.53;5037098;28;20029;-69
2022/10/27 13:24:00;;;;;;;7.55;4.03;;;;;;;21.03;nan;101691.44;5044641;28;20379;-70
2022/10/27 13:26:40;;;;;;;9.27;4.45;;;;;;;21.03;nan;101706.69;5038264;28;20561;-72
2022/10/27 13:29:24;;;;;;;8.30;4.38;;;;;;;20.81;nan;101702.34;5042073;28;20040;-73
2022/10/27 13:32:26;;;;;;;11.15;4.30;;;;;;;20.86;nan;101704.22;5036504;28;20029;-73
2022/10/27 13:35:00;;;;;;;9.10;4.07;;;;;;;20.92;nan;101686.31;5043046;28;20022;-74
2022/10/27 13:38:03;;;;;;;7.47;3.83;;;;;;;20.98;nan;101696.78;5036894;28;20033;-73
2022/10/27 13:40:38;;;;;;;9.52;4.47;;;;;;;20.80;nan;101692.69;5038887;28;20483;-71
2022/10/27 13:43:22;;;;;;;6.30;4.13;;;;;;;20.87;nan;101691.63;5042916;28;20033;-72
2022/10/27 13:45:52;;;;;;;8.05;4.30;;;;;;;20.88;nan;101678.00;5038963;28;20032;-70
2022/10/27 13:48:20;;;;;;;9.98;4.82;;;;;;;21.01;nan;101682.06;5038739;28;20036;-73
2022/10/27 13:50:54;;;;;;;11.00;4.37;;;;;;;21.03;nan;101726.25;5041839;28;20474;-70
2022/10/27 13:53:21;;;;;;;9.75;5.15;;;;;;;21.10;nan;101704.56;5038848;28;20471;-72